createdAt,value
2022-08-03T06:14:42.337Z,4804.00
2022-08-03T07:19:06.698Z,6080.00
2022-08-03T07:29:15.208Z,57728.00
2022-08-03T07:39:24.384Z,58208.00
2022-08-03T07:49:34.381Z,63040.00
2022-08-03T07:59:56.764Z,72960.00
2022-08-03T08:09:54.895Z,80832.00
2022-08-03T08:20:02.046Z,87008.00
2022-08-03T08:30:12.186Z,79936.00
2022-08-03T08:40:20.393Z,88576.00
2022-08-03T08:51:59.391Z,97824.00
2022-08-03T09:01:57.630Z,91136.00
2022-08-03T09:12:27.205Z,67712.00
2022-08-03T09:22:16.708Z,67296.00
2022-08-03T09:35:06.459Z,74048.00
2022-08-03T09:49:14.880Z,80064.00
2022-08-03T09:59:22.371Z,85696.00
2022-08-03T10:09:30.493Z,78624.00
2022-08-03T10:19:39.406Z,94112.00
2022-08-03T11:00:21.626Z,90496.00
2022-08-03T11:11:53.675Z,84640.00
2022-08-03T11:24:05.421Z,73088.00
2022-08-03T11:33:40.492Z,60480.00
2022-08-03T11:43:48.952Z,75840.00
2022-08-03T11:53:56.405Z,67872.00
2022-08-03T12:04:03.566Z,80480.00
2022-08-03T12:14:51.064Z,77792.00
2022-08-03T12:24:23.770Z,73536.00
2022-08-03T12:37:20.302Z,75008.00
2022-08-03T12:51:21.765Z,56384.00
2022-08-03T13:03:00.534Z,78240.00
2022-08-03T13:17:01.844Z,92608.00
2022-08-03T13:49:38.711Z,8588.00
2022-08-03T13:59:45.420Z,8012.00
2022-08-03T14:09:52.350Z,8676.00
2022-08-03T14:38:34.378Z,6936.00
2022-08-03T15:11:13.451Z,5188.00
2022-08-03T15:22:39.507Z,6236.00
2022-08-03T15:34:12.395Z,5604.00
2022-08-03T15:49:38.747Z,4896.00
2022-08-03T16:01:03.850Z,5088.00
2022-08-03T16:11:10.132Z,4856.00
2022-08-03T16:21:19.488Z,4168.00
2022-08-03T16:31:27.428Z,5220.00
2022-08-03T16:41:53.747Z,4628.00
2022-08-03T16:51:50.639Z,4008.00
2022-08-03T17:13:53.872Z,3396.00
2022-08-03T17:25:22.208Z,1964.00
2022-08-03T18:22:02.921Z,944.00
2022-08-03T19:39:35.560Z,0.00
2022-08-03T20:21:28.374Z,0.00
2022-08-03T22:32:05.008Z,0.00
2022-08-03T22:46:15.553Z,0.00
